sensor_id;sensor_type;location;lat;lon;timestamp;temperature;humidity
14170;DHT22;63889;50.596;8.690;2022-12-18T00:01:03;-4.80;99.90
14170;DHT22;63889;50.596;8.690;2022-12-18T00:03:33;-4.70;99.90
14170;DHT22;63889;50.596;8.690;2022-12-18T00:05:59;-4.70;99.90
14170;DHT22;63889;50.596;8.690;2022-12-18T00:08:25;-4.80;99.90
14170;DHT22;63889;50.596;8.690;2022-12-18T00:10:50;-4.70;99.90
14170;DHT22;63889;50.596;8.690;2022-12-18T00:13:16;-4.60;99.90
14170;DHT22;63889;50.596;8.690;2022-12-18T00:15:42;-4.60;99.90
14170;DHT22;63889;50.596;8.690;2022-12-18T00:18:08;-4.50;99.90
14170;DHT22;63889;50.596;8.690;2022-12-18T00:20:37;-4.50;99.90
14170;DHT22;63889;50.596;8.690;2022-12-18T00:23:04;-4.60;99.90
14170;DHT22;63889;50.596;8.690;2022-12-18T00:25:33;-4.60;99.90
14170;DHT22;63889;50.596;8.690;2022-12-18T00:28:00;-4.60;99.90
14170;DHT22;63889;50.596;8.690;2022-12-18T00:30:25;-4.70;99.90
14170;DHT22;63889;50.596;8.690;2022-12-18T00:32:51;-4.80;99.90
14170;DHT22;63889;50.596;8.690;2022-12-18T00:35:16;-4.90;99.90
14170;DHT22;63889;50.596;8.690;2022-12-18T00:37:42;-5.10;99.90
14170;DHT22;63889;50.596;8.690;2022-12-18T00:40:08;-5.10;99.90
14170;DHT22;63889;50.596;8.690;2022-12-18T00:42:33;-5.00;99.90
14170;DHT22;63889;50.596;8.690;2022-12-18T00:45:17;-5.00;99.90
14170;DHT22;63889;50.596;8.690;2022-12-18T00:47:43;-5.10;99.90
14170;DHT22;63889;50.596;8.690;2022-12-18T00:50:09;-5.00;99.90
14170;DHT22;63889;50.596;8.690;2022-12-18T00:52:34;-5.10;99.90
14170;DHT22;63889;50.596;8.690;2022-12-18T00:55:00;-5.20;99.90
14170;DHT22;63889;50.596;8.690;2022-12-18T00:57:25;-5.20;99.90
14170;DHT22;63889;50.596;8.690;2022-12-18T00:59:51;-5.10;99.90
14170;DHT22;63889;50.596;8.690;2022-12-18T01:02:16;-5.30;99.90
14170;DHT22;63889;50.596;8.690;2022-12-18T01:04:42;-5.30;99.90
14170;DHT22;63889;50.596;8.690;2022-12-18T01:07:07;-5.30;99.90
14170;DHT22;63889;50.596;8.690;2022-12-18T01:09:33;-5.30;99.90
14170;DHT22;63889;50.596;8.690;2022-12-18T01:11:59;-5.20;99.90
14170;DHT22;63889;50.596;8.690;2022-12-18T01:14:25;-5.30;99.90
14170;DHT22;63889;50.596;8.690;2022-12-18T01:16:50;-5.40;99.90
14170;DHT22;63889;50.596;8.690;2022-12-18T01:19:16;-5.30;99.90
14170;DHT22;63889;50.596;8.690;2022-12-18T01:21:41;-5.10;99.90
14170;DHT22;63889;50.596;8.690;2022-12-18T01:24:07;-5.20;99.90
14170;DHT22;63889;50.596;8.690;2022-12-18T01:26:33;-5.10;99.90
14170;DHT22;63889;50.596;8.690;2022-12-18T01:28:58;-5.20;99.90
14170;DHT22;63889;50.596;8.690;2022-12-18T01:31:27;-5.20;99.90
14170;DHT22;63889;50.596;8.690;2022-12-18T01:33:59;-5.30;99.90
14170;DHT22;63889;50.596;8.690;2022-12-18T01:36:38;-5.20;99.90
14170;DHT22;63889;50.596;8.690;2022-12-18T01:39:13;-5.20;99.90
14170;DHT22;63889;50.596;8.690;2022-12-18T01:41:40;-5.30;99.90
14170;DHT22;63889;50.596;8.690;2022-12-18T01:45:04;-5.20;99.90
14170;DHT22;63889;50.596;8.690;2022-12-18T01:47:32;-5.20;99.90
14170;DHT22;63889;50.596;8.690;2022-12-18T01:50:46;-5.30;99.90
14170;DHT22;63889;50.596;8.690;2022-12-18T01:52:56;-5.30;99.90
14170;DHT22;63889;50.596;8.690;2022-12-18T01:55:26;-5.60;99.90
14170;DHT22;63889;50.596;8.690;2022-12-18T01:57:57;-5.70;99.90
14170;DHT22;63889;50.596;8.690;2022-12-18T02:00:25;-5.90;99.90
14170;DHT22;63889;50.596;8.690;2022-12-18T02:02:50;-6.00;99.90
14170;DHT22;63889;50.596;8.690;2022-12-18T02:05:20;-6.10;99.90
14170;DHT22;63889;50.596;8.690;2022-12-18T02:10:35;-6.30;99.90
14170;DHT22;63889;50.596;8.690;2022-12-18T02:13:14;-6.30;99.90
14170;DHT22;63889;50.596;8.690;2022-12-18T02:15:47;-6.30;99.90
14170;DHT22;63889;50.596;8.690;2022-12-18T02:18:23;-6.20;99.90
14170;DHT22;63889;50.596;8.690;2022-12-18T02:21:00;-6.20;99.90
14170;DHT22;63889;50.596;8.690;2022-12-18T02:23:56;-6.10;99.90
14170;DHT22;63889;50.596;8.690;2022-12-18T02:26:37;-6.00;99.90
14170;DHT22;63889;50.596;8.690;2022-12-18T02:29:05;-5.80;99.90
14170;DHT22;63889;50.596;8.690;2022-12-18T02:31:42;-5.70;99.90
14170;DHT22;63889;50.596;8.690;2022-12-18T02:34:09;-5.60;99.90
14170;DHT22;63889;50.596;8.690;2022-12-18T02:36:38;-5.70;99.90
14170;DHT22;63889;50.596;8.690;2022-12-18T02:39:07;-5.90;99.90
14170;DHT22;63889;50.596;8.690;2022-12-18T02:41:34;-5.80;99.90
14170;DHT22;63889;50.596;8.690;2022-12-18T02:44:10;-5.60;99.90
14170;DHT22;63889;50.596;8.690;2022-12-18T02:46:40;-5.70;99.90
14170;DHT22;63889;50.596;8.690;2022-12-18T02:51:55;-5.60;99.90
14170;DHT22;63889;50.596;8.690;2022-12-18T02:56:56;-5.80;99.90
14170;DHT22;63889;50.596;8.690;2022-12-18T02:59:38;-6.00;99.90
14170;DHT22;63889;50.596;8.690;2022-12-18T03:02:08;-6.40;99.90
14170;DHT22;63889;50.596;8.690;2022-12-18T03:05:01;-6.60;99.90
14170;DHT22;63889;50.596;8.690;2022-12-18T03:07:38;-6.80;99.90
14170;DHT22;63889;50.596;8.690;2022-12-18T03:10:06;-6.80;99.90
14170;DHT22;63889;50.596;8.690;2022-12-18T03:12:42;-6.80;99.90
14170;DHT22;63889;50.596;8.690;2022-12-18T03:15:14;-6.90;99.90
14170;DHT22;63889;50.596;8.690;2022-12-18T03:17:46;-7.00;99.90
14170;DHT22;63889;50.596;8.690;2022-12-18T03:20:18;-7.10;99.90
14170;DHT22;63889;50.596;8.690;2022-12-18T03:22:47;-7.10;99.90
14170;DHT22;63889;50.596;8.690;2022-12-18T03:25:15;-7.00;99.90
14170;DHT22;63889;50.596;8.690;2022-12-18T03:27:46;-6.90;99.90
14170;DHT22;63889;50.596;8.690;2022-12-18T03:30:13;-6.80;99.90
14170;DHT22;63889;50.596;8.690;2022-12-18T03:33:08;-6.80;99.90
14170;DHT22;63889;50.596;8.690;2022-12-18T03:35:40;-6.90;99.90
14170;DHT22;63889;50.596;8.690;2022-12-18T03:38:07;-7.30;99.90
14170;DHT22;63889;50.596;8.690;2022-12-18T03:40:58;-7.30;99.90
14170;DHT22;63889;50.596;8.690;2022-12-18T03:46:07;-7.50;99.90
14170;DHT22;63889;50.596;8.690;2022-12-18T03:48:41;-7.60;99.90
14170;DHT22;63889;50.596;8.690;2022-12-18T03:51:17;-7.50;99.90
14170;DHT22;63889;50.596;8.690;2022-12-18T03:53:52;-7.40;99.90
14170;DHT22;63889;50.596;8.690;2022-12-18T03:56:20;-7.40;99.90
14170;DHT22;63889;50.596;8.690;2022-12-18T03:58:48;-7.40;99.90
14170;DHT22;63889;50.596;8.690;2022-12-18T04:01:16;-7.40;99.90
14170;DHT22;63889;50.596;8.690;2022-12-18T04:03:43;-7.40;99.90
14170;DHT22;63889;50.596;8.690;2022-12-18T04:06:10;-7.40;99.90
14170;DHT22;63889;50.596;8.690;2022-12-18T04:08:36;-7.40;99.90
14170;DHT22;63889;50.596;8.690;2022-12-18T04:11:03;-7.50;99.90
14170;DHT22;63889;50.596;8.690;2022-12-18T04:13:33;-7.40;99.90
14170;DHT22;63889;50.596;8.690;2022-12-18T04:15:59;-7.30;99.90
14170;DHT22;63889;50.596;8.690;2022-12-18T04:18:25;-7.30;99.90
14170;DHT22;63889;50.596;8.690;2022-12-18T04:20:50;-7.20;99.90
14170;DHT22;63889;50.596;8.690;2022-12-18T04:23:16;-7.20;99.90
14170;DHT22;63889;50.596;8.690;2022-12-18T04:25:41;-7.10;99.90
14170;DHT22;63889;50.596;8.690;2022-12-18T04:28:07;-7.30;99.90
14170;DHT22;63889;50.596;8.690;2022-12-18T04:30:33;-7.20;99.90
14170;DHT22;63889;50.596;8.690;2022-12-18T04:32:58;-7.20;99.90
14170;DHT22;63889;50.596;8.690;2022-12-18T04:35:24;-7.20;99.90
14170;DHT22;63889;50.596;8.690;2022-12-18T04:37:49;-7.10;99.90
14170;DHT22;63889;50.596;8.690;2022-12-18T04:40:15;-7.20;99.90
14170;DHT22;63889;50.596;8.690;2022-12-18T04:42:40;-7.20;99.90
14170;DHT22;63889;50.596;8.690;2022-12-18T04:45:07;-7.40;99.90
14170;DHT22;63889;50.596;8.690;2022-12-18T04:47:32;-7.60;99.90
14170;DHT22;63889;50.596;8.690;2022-12-18T04:49:58;-7.60;99.90
14170;DHT22;63889;50.596;8.690;2022-12-18T04:52:23;-7.60;99.90
14170;DHT22;63889;50.596;8.690;2022-12-18T04:54:49;-7.70;99.90
14170;DHT22;63889;50.596;8.690;2022-12-18T04:57:15;-7.70;99.90
14170;DHT22;63889;50.596;8.690;2022-12-18T04:59:40;-7.90;99.90
14170;DHT22;63889;50.596;8.690;2022-12-18T05:02:06;-7.90;99.90
14170;DHT22;63889;50.596;8.690;2022-12-18T05:04:31;-7.70;99.90
14170;DHT22;63889;50.596;8.690;2022-12-18T05:06:57;-7.80;99.90
14170;DHT22;63889;50.596;8.690;2022-12-18T05:09:23;-7.80;99.90
14170;DHT22;63889;50.596;8.690;2022-12-18T05:11:48;-7.80;99.90
14170;DHT22;63889;50.596;8.690;2022-12-18T05:14:14;-7.60;99.90
14170;DHT22;63889;50.596;8.690;2022-12-18T05:16:39;-7.40;99.90
14170;DHT22;63889;50.596;8.690;2022-12-18T05:19:05;-7.40;99.90
14170;DHT22;63889;50.596;8.690;2022-12-18T05:21:31;-7.60;99.90
14170;DHT22;63889;50.596;8.690;2022-12-18T05:23:56;-7.60;99.90
14170;DHT22;63889;50.596;8.690;2022-12-18T05:26:22;-7.40;99.90
14170;DHT22;63889;50.596;8.690;2022-12-18T05:28:48;-7.40;99.90
14170;DHT22;63889;50.596;8.690;2022-12-18T05:31:14;-7.20;99.90
14170;DHT22;63889;50.596;8.690;2022-12-18T05:33:39;-7.30;99.90
14170;DHT22;63889;50.596;8.690;2022-12-18T05:36:07;-7.40;99.90
14170;DHT22;63889;50.596;8.690;2022-12-18T05:38:35;-7.50;99.90
14170;DHT22;63889;50.596;8.690;2022-12-18T05:41:01;-7.90;99.90
14170;DHT22;63889;50.596;8.690;2022-12-18T05:43:28;-8.10;99.90
14170;DHT22;63889;50.596;8.690;2022-12-18T05:45:54;-8.10;99.90
14170;DHT22;63889;50.596;8.690;2022-12-18T05:48:21;-8.10;99.90
14170;DHT22;63889;50.596;8.690;2022-12-18T05:50:48;-8.20;99.90
14170;DHT22;63889;50.596;8.690;2022-12-18T05:53:16;-8.30;99.90
14170;DHT22;63889;50.596;8.690;2022-12-18T05:55:42;-8.30;99.90
14170;DHT22;63889;50.596;8.690;2022-12-18T05:58:09;-8.40;99.90
14170;DHT22;63889;50.596;8.690;2022-12-18T06:00:39;-8.50;99.90
14170;DHT22;63889;50.596;8.690;2022-12-18T06:03:08;-8.50;99.90
14170;DHT22;63889;50.596;8.690;2022-12-18T06:05:43;-8.50;99.90
14170;DHT22;63889;50.596;8.690;2022-12-18T06:08:09;-8.60;99.90
14170;DHT22;63889;50.596;8.690;2022-12-18T06:10:34;-8.40;99.90
14170;DHT22;63889;50.596;8.690;2022-12-18T06:13:01;-8.30;99.90
14170;DHT22;63889;50.596;8.690;2022-12-18T06:15:26;-8.20;99.90
14170;DHT22;63889;50.596;8.690;2022-12-18T06:17:52;-8.10;99.90
14170;DHT22;63889;50.596;8.690;2022-12-18T06:20:18;-8.10;99.90
14170;DHT22;63889;50.596;8.690;2022-12-18T06:22:44;-8.00;99.90
14170;DHT22;63889;50.596;8.690;2022-12-18T06:25:10;-7.90;99.90
14170;DHT22;63889;50.596;8.690;2022-12-18T06:27:35;-7.80;99.90
14170;DHT22;63889;50.596;8.690;2022-12-18T06:30:02;-7.80;99.90
14170;DHT22;63889;50.596;8.690;2022-12-18T06:32:27;-7.60;99.90
14170;DHT22;63889;50.596;8.690;2022-12-18T06:34:53;-7.70;99.90
14170;DHT22;63889;50.596;8.690;2022-12-18T06:37:20;-7.60;99.90
14170;DHT22;63889;50.596;8.690;2022-12-18T06:39:46;-7.40;99.90
14170;DHT22;63889;50.596;8.690;2022-12-18T06:42:11;-7.60;99.90
14170;DHT22;63889;50.596;8.690;2022-12-18T06:44:37;-7.90;99.90
14170;DHT22;63889;50.596;8.690;2022-12-18T06:47:02;-7.80;99.90
14170;DHT22;63889;50.596;8.690;2022-12-18T06:49:28;-7.80;99.90
14170;DHT22;63889;50.596;8.690;2022-12-18T06:51:53;-7.70;99.90
14170;DHT22;63889;50.596;8.690;2022-12-18T06:54:19;-7.70;99.90
14170;DHT22;63889;50.596;8.690;2022-12-18T06:56:45;-7.40;99.90
14170;DHT22;63889;50.596;8.690;2022-12-18T06:59:12;-7.30;99.90
14170;DHT22;63889;50.596;8.690;2022-12-18T07:01:38;-7.40;99.90
14170;DHT22;63889;50.596;8.690;2022-12-18T07:04:03;-7.50;99.90
14170;DHT22;63889;50.596;8.690;2022-12-18T07:06:29;-7.60;99.90
14170;DHT22;63889;50.596;8.690;2022-12-18T07:08:54;-7.70;99.90
14170;DHT22;63889;50.596;8.690;2022-12-18T07:11:20;-7.90;99.90
14170;DHT22;63889;50.596;8.690;2022-12-18T07:13:46;-7.90;99.90
14170;DHT22;63889;50.596;8.690;2022-12-18T07:16:15;-7.90;99.90
14170;DHT22;63889;50.596;8.690;2022-12-18T07:18:41;-7.80;99.90
14170;DHT22;63889;50.596;8.690;2022-12-18T07:21:08;-7.80;99.90
14170;DHT22;63889;50.596;8.690;2022-12-18T07:23:35;-7.70;99.90
14170;DHT22;63889;50.596;8.690;2022-12-18T07:26:05;-7.80;99.90
14170;DHT22;63889;50.596;8.690;2022-12-18T07:28:32;-8.00;99.90
14170;DHT22;63889;50.596;8.690;2022-12-18T07:31:02;-8.00;99.90
14170;DHT22;63889;50.596;8.690;2022-12-18T07:33:28;-8.00;99.90
14170;DHT22;63889;50.596;8.690;2022-12-18T07:35:53;-8.20;99.90
14170;DHT22;63889;50.596;8.690;2022-12-18T07:38:19;-8.30;99.90
14170;DHT22;63889;50.596;8.690;2022-12-18T07:40:44;-8.20;99.90
14170;DHT22;63889;50.596;8.690;2022-12-18T07:43:10;-8.30;99.90
14170;DHT22;63889;50.596;8.690;2022-12-18T07:45:35;-8.30;99.90
14170;DHT22;63889;50.596;8.690;2022-12-18T07:48:01;-8.30;99.90
14170;DHT22;63889;50.596;8.690;2022-12-18T07:50:45;-8.40;99.90
14170;DHT22;63889;50.596;8.690;2022-12-18T07:53:11;-8.30;99.90
14170;DHT22;63889;50.596;8.690;2022-12-18T07:55:36;-8.30;99.90
14170;DHT22;63889;50.596;8.690;2022-12-18T07:58:03;-8.00;99.90
14170;DHT22;63889;50.596;8.690;2022-12-18T08:00:30;-7.70;99.90
14170;DHT22;63889;50.596;8.690;2022-12-18T08:02:55;-7.70;99.90
14170;DHT22;63889;50.596;8.690;2022-12-18T08:05:21;-7.60;99.90
14170;DHT22;63889;50.596;8.690;2022-12-18T08:07:47;-7.60;99.90
14170;DHT22;63889;50.596;8.690;2022-12-18T08:10:13;-7.70;99.90
14170;DHT22;63889;50.596;8.690;2022-12-18T08:12:39;-7.60;99.90
14170;DHT22;63889;50.596;8.690;2022-12-18T08:15:05;-7.50;99.90
14170;DHT22;63889;50.596;8.690;2022-12-18T08:17:30;-7.40;99.90
14170;DHT22;63889;50.596;8.690;2022-12-18T08:19:56;-7.30;99.90
14170;DHT22;63889;50.596;8.690;2022-12-18T08:22:21;-7.50;99.90
14170;DHT22;63889;50.596;8.690;2022-12-18T08:24:47;-7.60;99.90
14170;DHT22;63889;50.596;8.690;2022-12-18T08:27:13;-7.80;99.90
14170;DHT22;63889;50.596;8.690;2022-12-18T08:29:38;-7.70;99.90
14170;DHT22;63889;50.596;8.690;2022-12-18T08:32:04;-7.50;99.90
14170;DHT22;63889;50.596;8.690;2022-12-18T08:34:29;-7.50;99.90
14170;DHT22;63889;50.596;8.690;2022-12-18T08:36:55;-7.40;99.90
14170;DHT22;63889;50.596;8.690;2022-12-18T08:39:20;-7.40;99.90
14170;DHT22;63889;50.596;8.690;2022-12-18T08:41:46;-7.20;99.90
14170;DHT22;63889;50.596;8.690;2022-12-18T08:44:32;-7.00;99.90
14170;DHT22;63889;50.596;8.690;2022-12-18T08:47:03;-6.70;99.90
14170;DHT22;63889;50.596;8.690;2022-12-18T08:49:29;-6.80;99.90
14170;DHT22;63889;50.596;8.690;2022-12-18T08:51:55;-6.60;99.90
14170;DHT22;63889;50.596;8.690;2022-12-18T08:54:22;-6.60;99.90
14170;DHT22;63889;50.596;8.690;2022-12-18T08:56:48;-6.40;99.90
14170;DHT22;63889;50.596;8.690;2022-12-18T08:59:15;-6.30;99.90
14170;DHT22;63889;50.596;8.690;2022-12-18T09:01:41;-6.30;99.90
14170;DHT22;63889;50.596;8.690;2022-12-18T09:04:08;-6.30;99.90
14170;DHT22;63889;50.596;8.690;2022-12-18T09:06:34;-6.50;99.90
14170;DHT22;63889;50.596;8.690;2022-12-18T09:08:59;-6.20;99.90
14170;DHT22;63889;50.596;8.690;2022-12-18T09:11:26;-6.10;99.90
14170;DHT22;63889;50.596;8.690;2022-12-18T09:13:53;-5.90;99.90
14170;DHT22;63889;50.596;8.690;2022-12-18T09:16:19;-5.70;99.90
14170;DHT22;63889;50.596;8.690;2022-12-18T09:18:45;-5.70;99.90
14170;DHT22;63889;50.596;8.690;2022-12-18T09:21:13;-5.60;99.90
14170;DHT22;63889;50.596;8.690;2022-12-18T09:23:40;-5.60;99.90
14170;DHT22;63889;50.596;8.690;2022-12-18T09:26:05;-5.50;99.90
14170;DHT22;63889;50.596;8.690;2022-12-18T09:28:31;-5.40;99.90
14170;DHT22;63889;50.596;8.690;2022-12-18T09:30:56;-5.30;99.90
14170;DHT22;63889;50.596;8.690;2022-12-18T09:33:22;-5.40;99.90
14170;DHT22;63889;50.596;8.690;2022-12-18T09:35:48;-5.30;99.90
14170;DHT22;63889;50.596;8.690;2022-12-18T09:38:18;-5.20;99.90
14170;DHT22;63889;50.596;8.690;2022-12-18T09:40:47;-5.10;99.90
14170;DHT22;63889;50.596;8.690;2022-12-18T09:43:21;-5.00;99.90
14170;DHT22;63889;50.596;8.690;2022-12-18T09:45:57;-5.00;99.90
14170;DHT22;63889;50.596;8.690;2022-12-18T09:48:31;-4.90;99.90
14170;DHT22;63889;50.596;8.690;2022-12-18T09:51:02;-5.10;99.90
14170;DHT22;63889;50.596;8.690;2022-12-18T09:53:31;-5.00;99.90
14170;DHT22;63889;50.596;8.690;2022-12-18T09:56:00;-4.90;99.90
14170;DHT22;63889;50.596;8.690;2022-12-18T10:00:56;-4.50;99.90
14170;DHT22;63889;50.596;8.690;2022-12-18T10:03:22;-4.40;99.90
14170;DHT22;63889;50.596;8.690;2022-12-18T10:06:11;-4.30;99.90
14170;DHT22;63889;50.596;8.690;2022-12-18T10:09:12;-4.10;99.90
14170;DHT22;63889;50.596;8.690;2022-12-18T10:12:00;-4.10;99.90
14170;DHT22;63889;50.596;8.690;2022-12-18T10:15:02;-3.90;99.90
14170;DHT22;63889;50.596;8.690;2022-12-18T10:20:14;-3.80;99.90
14170;DHT22;63889;50.596;8.690;2022-12-18T10:25:13;-3.60;99.90
14170;DHT22;63889;50.596;8.690;2022-12-18T10:27:41;-3.40;99.90
14170;DHT22;63889;50.596;8.690;2022-12-18T10:30:18;-3.30;99.90
14170;DHT22;63889;50.596;8.690;2022-12-18T10:32:44;-3.10;99.90
14170;DHT22;63889;50.596;8.690;2022-12-18T10:35:21;-3.00;99.90
14170;DHT22;63889;50.596;8.690;2022-12-18T10:38:28;-2.80;99.90
14170;DHT22;63889;50.596;8.690;2022-12-18T10:40:57;-2.80;99.90
14170;DHT22;63889;50.596;8.690;2022-12-18T10:43:26;-2.80;99.90
14170;DHT22;63889;50.596;8.690;2022-12-18T10:48:24;-2.50;99.90
14170;DHT22;63889;50.596;8.690;2022-12-18T10:50:51;-2.50;99.90
14170;DHT22;63889;50.596;8.690;2022-12-18T10:53:23;-2.40;99.90
14170;DHT22;63889;50.596;8.690;2022-12-18T10:55:49;-2.30;99.90
14170;DHT22;63889;50.596;8.690;2022-12-18T10:58:24;-2.40;99.90
14170;DHT22;63889;50.596;8.690;2022-12-18T11:01:11;-2.40;99.90
14170;DHT22;63889;50.596;8.690;2022-12-18T11:06:24;-2.20;99.90
14170;DHT22;63889;50.596;8.690;2022-12-18T11:09:06;-2.20;99.90
14170;DHT22;63889;50.596;8.690;2022-12-18T11:11:35;-2.10;99.90
14170;DHT22;63889;50.596;8.690;2022-12-18T11:14:05;-2.10;99.90
14170;DHT22;63889;50.596;8.690;2022-12-18T11:16:37;-2.10;99.90
14170;DHT22;63889;50.596;8.690;2022-12-18T11:21:46;-2.00;99.90
14170;DHT22;63889;50.596;8.690;2022-12-18T11:24:25;-2.20;99.90
14170;DHT22;63889;50.596;8.690;2022-12-18T11:26:54;-2.20;99.90
14170;DHT22;63889;50.596;8.690;2022-12-18T11:29:27;-2.00;99.90
14170;DHT22;63889;50.596;8.690;2022-12-18T11:32:30;-2.00;99.90
14170;DHT22;63889;50.596;8.690;2022-12-18T11:35:06;-1.90;99.90
14170;DHT22;63889;50.596;8.690;2022-12-18T11:37:36;-2.10;99.90
14170;DHT22;63889;50.596;8.690;2022-12-18T11:40:09;-1.90;99.90
14170;DHT22;63889;50.596;8.690;2022-12-18T11:42:40;-1.80;99.90
14170;DHT22;63889;50.596;8.690;2022-12-18T11:48:01;-1.40;99.90
14170;DHT22;63889;50.596;8.690;2022-12-18T11:50:53;-1.10;99.90
14170;DHT22;63889;50.596;8.690;2022-12-18T11:53:17;-1.10;99.90
14170;DHT22;63889;50.596;8.690;2022-12-18T11:58:50;-1.00;99.90
14170;DHT22;63889;50.596;8.690;2022-12-18T12:01:49;-1.00;99.90
14170;DHT22;63889;50.596;8.690;2022-12-18T12:07:21;-1.50;99.90
14170;DHT22;63889;50.596;8.690;2022-12-18T12:15:30;-1.30;99.90
14170;DHT22;63889;50.596;8.690;2022-12-18T12:18:28;-1.20;99.90
14170;DHT22;63889;50.596;8.690;2022-12-18T12:21:17;-1.00;99.90
14170;DHT22;63889;50.596;8.690;2022-12-18T12:24:01;-0.90;99.90
14170;DHT22;63889;50.596;8.690;2022-12-18T12:26:35;-0.90;99.90
14170;DHT22;63889;50.596;8.690;2022-12-18T12:32:43;-0.60;99.90
14170;DHT22;63889;50.596;8.690;2022-12-18T12:35:22;-0.60;99.90
14170;DHT22;63889;50.596;8.690;2022-12-18T12:38:08;-0.70;99.90
14170;DHT22;63889;50.596;8.690;2022-12-18T12:40:42;-0.90;99.90
14170;DHT22;63889;50.596;8.690;2022-12-18T12:46:06;-1.30;99.90
14170;DHT22;63889;50.596;8.690;2022-12-18T12:51:18;-1.40;99.90
14170;DHT22;63889;50.596;8.690;2022-12-18T12:53:45;-1.90;99.90
14170;DHT22;63889;50.596;8.690;2022-12-18T12:56:12;-2.20;99.90
14170;DHT22;63889;50.596;8.690;2022-12-18T13:01:33;-2.10;99.90
14170;DHT22;63889;50.596;8.690;2022-12-18T13:04:12;-2.00;99.90
14170;DHT22;63889;50.596;8.690;2022-12-18T13:06:46;-2.20;99.90
14170;DHT22;63889;50.596;8.690;2022-12-18T13:09:13;-2.30;99.90
14170;DHT22;63889;50.596;8.690;2022-12-18T13:11:46;-2.00;99.90
14170;DHT22;63889;50.596;8.690;2022-12-18T13:14:34;-1.70;99.90
14170;DHT22;63889;50.596;8.690;2022-12-18T13:19:49;-1.50;99.90
14170;DHT22;63889;50.596;8.690;2022-12-18T13:22:24;-1.60;99.90
14170;DHT22;63889;50.596;8.690;2022-12-18T13:24:50;-1.60;99.90
14170;DHT22;63889;50.596;8.690;2022-12-18T13:41:00;-1.90;99.90
14170;DHT22;63889;50.596;8.690;2022-12-18T13:49:36;-2.40;99.90
14170;DHT22;63889;50.596;8.690;2022-12-18T13:52:03;-2.20;99.90
14170;DHT22;63889;50.596;8.690;2022-12-18T13:54:40;-2.00;99.90
14170;DHT22;63889;50.596;8.690;2022-12-18T13:57:29;-2.30;99.90
14170;DHT22;63889;50.596;8.690;2022-12-18T13:59:55;-2.20;99.90
14170;DHT22;63889;50.596;8.690;2022-12-18T14:02:23;-2.10;99.90
14170;DHT22;63889;50.596;8.690;2022-12-18T14:04:50;-2.00;99.90
14170;DHT22;63889;50.596;8.690;2022-12-18T14:07:26;-1.90;99.90
14170;DHT22;63889;50.596;8.690;2022-12-18T14:09:55;-2.00;99.90
14170;DHT22;63889;50.596;8.690;2022-12-18T14:12:31;-1.90;99.90
14170;DHT22;63889;50.596;8.690;2022-12-18T14:20:43;-2.30;99.90
14170;DHT22;63889;50.596;8.690;2022-12-18T14:23:29;-2.20;99.90
14170;DHT22;63889;50.596;8.690;2022-12-18T14:25:55;-2.10;99.90
14170;DHT22;63889;50.596;8.690;2022-12-18T14:28:21;-2.00;99.90
14170;DHT22;63889;50.596;8.690;2022-12-18T14:30:49;-1.90;99.90
14170;DHT22;63889;50.596;8.690;2022-12-18T14:33:18;-1.90;99.90
14170;DHT22;63889;50.596;8.690;2022-12-18T14:40:59;-2.50;99.90
14170;DHT22;63889;50.596;8.690;2022-12-18T14:43:28;-2.60;99.90
14170;DHT22;63889;50.596;8.690;2022-12-18T14:45:55;-2.70;99.90
14170;DHT22;63889;50.596;8.690;2022-12-18T14:48:33;-2.70;99.90
14170;DHT22;63889;50.596;8.690;2022-12-18T14:53:36;-2.60;99.90
14170;DHT22;63889;50.596;8.690;2022-12-18T14:56:03;-2.60;99.90
14170;DHT22;63889;50.596;8.690;2022-12-18T14:58:37;-2.50;99.90
14170;DHT22;63889;50.596;8.690;2022-12-18T15:01:03;-2.40;99.90
14170;DHT22;63889;50.596;8.690;2022-12-18T15:03:28;-2.50;99.90
14170;DHT22;63889;50.596;8.690;2022-12-18T15:05:54;-2.50;99.90
14170;DHT22;63889;50.596;8.690;2022-12-18T15:08:30;-2.60;99.90
14170;DHT22;63889;50.596;8.690;2022-12-18T15:10:56;-2.50;99.90
14170;DHT22;63889;50.596;8.690;2022-12-18T15:13:24;-2.70;99.90
14170;DHT22;63889;50.596;8.690;2022-12-18T15:15:50;-2.60;99.90
14170;DHT22;63889;50.596;8.690;2022-12-18T15:18:18;-2.70;99.90
14170;DHT22;63889;50.596;8.690;2022-12-18T15:21:16;-2.60;99.90
14170;DHT22;63889;50.596;8.690;2022-12-18T15:23:46;-2.70;99.90
14170;DHT22;63889;50.596;8.690;2022-12-18T15:26:14;-2.80;99.90
14170;DHT22;63889;50.596;8.690;2022-12-18T15:28:50;-2.80;99.90
14170;DHT22;63889;50.596;8.690;2022-12-18T15:36:20;-2.70;99.90
14170;DHT22;63889;50.596;8.690;2022-12-18T15:38:48;-2.70;99.90
14170;DHT22;63889;50.596;8.690;2022-12-18T15:41:16;-2.70;99.90
14170;DHT22;63889;50.596;8.690;2022-12-18T15:43:42;-2.70;99.90
14170;DHT22;63889;50.596;8.690;2022-12-18T15:46:13;-2.80;99.90
14170;DHT22;63889;50.596;8.690;2022-12-18T15:48:44;-2.70;99.90
14170;DHT22;63889;50.596;8.690;2022-12-18T15:51:32;-2.70;99.90
14170;DHT22;63889;50.596;8.690;2022-12-18T15:54:00;-2.90;99.90
14170;DHT22;63889;50.596;8.690;2022-12-18T15:56:26;-3.00;99.90
14170;DHT22;63889;50.596;8.690;2022-12-18T15:59:12;-3.00;99.90
14170;DHT22;63889;50.596;8.690;2022-12-18T16:01:40;-3.10;99.90
14170;DHT22;63889;50.596;8.690;2022-12-18T16:04:06;-3.10;99.90
14170;DHT22;63889;50.596;8.690;2022-12-18T16:06:31;-3.10;99.90
14170;DHT22;63889;50.596;8.690;2022-12-18T16:08:57;-3.10;99.90
14170;DHT22;63889;50.596;8.690;2022-12-18T16:11:28;-3.00;99.90
14170;DHT22;63889;50.596;8.690;2022-12-18T16:16:43;-3.10;99.90
14170;DHT22;63889;50.596;8.690;2022-12-18T16:19:08;-3.00;99.90
14170;DHT22;63889;50.596;8.690;2022-12-18T16:21:34;-2.90;99.90
14170;DHT22;63889;50.596;8.690;2022-12-18T16:23:59;-3.00;99.90
14170;DHT22;63889;50.596;8.690;2022-12-18T16:26:25;-3.10;99.90
14170;DHT22;63889;50.596;8.690;2022-12-18T16:28:51;-3.10;99.90
14170;DHT22;63889;50.596;8.690;2022-12-18T16:31:16;-3.00;99.90
14170;DHT22;63889;50.596;8.690;2022-12-18T16:33:42;-3.10;99.90
14170;DHT22;63889;50.596;8.690;2022-12-18T16:36:07;-3.10;99.90
14170;DHT22;63889;50.596;8.690;2022-12-18T16:38:33;-3.10;99.90
14170;DHT22;63889;50.596;8.690;2022-12-18T16:40:58;-3.10;99.90
14170;DHT22;63889;50.596;8.690;2022-12-18T16:43:43;-3.10;99.90
14170;DHT22;63889;50.596;8.690;2022-12-18T16:46:08;-3.00;99.90
14170;DHT22;63889;50.596;8.690;2022-12-18T16:48:34;-2.90;99.90
14170;DHT22;63889;50.596;8.690;2022-12-18T16:51:01;-2.70;99.90
14170;DHT22;63889;50.596;8.690;2022-12-18T16:53:31;-2.80;99.90
14170;DHT22;63889;50.596;8.690;2022-12-18T16:55:57;-2.80;99.90
14170;DHT22;63889;50.596;8.690;2022-12-18T16:58:23;-2.80;99.90
14170;DHT22;63889;50.596;8.690;2022-12-18T17:00:48;-2.80;99.90
14170;DHT22;63889;50.596;8.690;2022-12-18T17:03:14;-2.80;99.90
14170;DHT22;63889;50.596;8.690;2022-12-18T17:05:39;-2.80;99.90
14170;DHT22;63889;50.596;8.690;2022-12-18T17:08:05;-2.70;99.90
14170;DHT22;63889;50.596;8.690;2022-12-18T17:10:31;-2.80;99.90
14170;DHT22;63889;50.596;8.690;2022-12-18T17:12:56;-2.80;99.90
14170;DHT22;63889;50.596;8.690;2022-12-18T17:15:22;-2.90;99.90
14170;DHT22;63889;50.596;8.690;2022-12-18T17:17:47;-2.80;99.90
14170;DHT22;63889;50.596;8.690;2022-12-18T17:20:13;-2.60;99.90
14170;DHT22;63889;50.596;8.690;2022-12-18T17:22:39;-2.60;99.90